sensor_id;sensor_type;location;lat;lon;timestamp;P1;durP1;ratioP1;P2;durP2;ratioP2
9972;SDS011;5027;53.560;10.062;2023-02-01T00:00:24;16.90;;;5.07;;
9972;SDS011;5027;53.560;10.062;2023-02-01T00:02:51;22.97;;;6.37;;
9972;SDS011;5027;53.560;10.062;2023-02-01T00:05:17;23.00;;;6.43;;
9972;SDS011;5027;53.560;10.062;2023-02-01T00:07:46;21.97;;;5.77;;
9972;SDS011;5027;53.560;10.062;2023-02-01T00:10:14;22.80;;;5.90;;
9972;SDS011;5027;53.560;10.062;2023-02-01T00:12:41;18.40;;;5.87;;
9972;SDS011;5027;53.560;10.062;2023-02-01T00:15:08;24.97;;;7.10;;
9972;SDS011;5027;53.560;10.062;2023-02-01T00:17:34;25.90;;;6.40;;
9972;SDS011;5027;53.560;10.062;2023-02-01T00:20:01;15.43;;;4.57;;
9972;SDS011;5027;53.560;10.062;2023-02-01T00:22:29;18.87;;;5.47;;
9972;SDS011;5027;53.560;10.062;2023-02-01T00:24:55;25.83;;;6.67;;
9972;SDS011;5027;53.560;10.062;2023-02-01T00:27:22;25.10;;;6.07;;
9972;SDS011;5027;53.560;10.062;2023-02-01T00:29:49;21.37;;;5.80;;
9972;SDS011;5027;53.560;10.062;2023-02-01T00:32:15;17.87;;;4.63;;
9972;SDS011;5027;53.560;10.062;2023-02-01T00:34:42;17.70;;;4.90;;
9972;SDS011;5027;53.560;10.062;2023-02-01T00:37:09;24.17;;;6.40;;
9972;SDS011;5027;53.560;10.062;2023-02-01T00:39:35;19.67;;;5.80;;
9972;SDS011;5027;53.560;10.062;2023-02-01T00:42:02;23.50;;;6.60;;
9972;SDS011;5027;53.560;10.062;2023-02-01T00:44:29;24.73;;;6.30;;
9972;SDS011;5027;53.560;10.062;2023-02-01T00:46:59;23.47;;;6.43;;
9972;SDS011;5027;53.560;10.062;2023-02-01T00:49:26;19.07;;;5.27;;
9972;SDS011;5027;53.560;10.062;2023-02-01T00:51:54;25.23;;;7.37;;
9972;SDS011;5027;53.560;10.062;2023-02-01T00:54:20;31.23;;;6.93;;
9972;SDS011;5027;53.560;10.062;2023-02-01T00:56:47;28.67;;;7.10;;
9972;SDS011;5027;53.560;10.062;2023-02-01T00:59:14;25.00;;;7.27;;
9972;SDS011;5027;53.560;10.062;2023-02-01T01:01:41;31.93;;;7.83;;
9972;SDS011;5027;53.560;10.062;2023-02-01T01:04:07;30.07;;;7.50;;
9972;SDS011;5027;53.560;10.062;2023-02-01T01:06:35;23.67;;;6.33;;
9972;SDS011;5027;53.560;10.062;2023-02-01T01:09:03;22.90;;;5.73;;
9972;SDS011;5027;53.560;10.062;2023-02-01T01:11:33;19.53;;;5.77;;
9972;SDS011;5027;53.560;10.062;2023-02-01T01:14:05;23.60;;;7.27;;
9972;SDS011;5027;53.560;10.062;2023-02-01T01:16:32;17.30;;;4.97;;
9972;SDS011;5027;53.560;10.062;2023-02-01T01:19:00;26.63;;;7.30;;
9972;SDS011;5027;53.560;10.062;2023-02-01T01:21:27;26.73;;;7.70;;
9972;SDS011;5027;53.560;10.062;2023-02-01T01:23:54;29.83;;;7.87;;
9972;SDS011;5027;53.560;10.062;2023-02-01T01:26:22;30.43;;;7.50;;
9972;SDS011;5027;53.560;10.062;2023-02-01T01:28:50;31.80;;;8.00;;
9972;SDS011;5027;53.560;10.062;2023-02-01T01:31:19;29.63;;;7.87;;
9972;SDS011;5027;53.560;10.062;2023-02-01T01:33:50;31.47;;;7.20;;
9972;SDS011;5027;53.560;10.062;2023-02-01T01:36:18;24.50;;;6.83;;
9972;SDS011;5027;53.560;10.062;2023-02-01T01:38:45;17.93;;;5.20;;
9972;SDS011;5027;53.560;10.062;2023-02-01T01:41:14;25.90;;;7.10;;
9972;SDS011;5027;53.560;10.062;2023-02-01T01:46:27;29.07;;;8.20;;
9972;SDS011;5027;53.560;10.062;2023-02-01T01:48:59;24.73;;;7.37;;
9972;SDS011;5027;53.560;10.062;2023-02-01T01:51:32;25.60;;;7.23;;
9972;SDS011;5027;53.560;10.062;2023-02-01T01:54:14;31.63;;;7.13;;
9972;SDS011;5027;53.560;10.062;2023-02-01T01:56:47;28.07;;;7.90;;
9972;SDS011;5027;53.560;10.062;2023-02-01T01:59:18;30.13;;;6.87;;
9972;SDS011;5027;53.560;10.062;2023-02-01T02:01:47;15.90;;;5.23;;
9972;SDS011;5027;53.560;10.062;2023-02-01T02:04:14;28.20;;;7.70;;
9972;SDS011;5027;53.560;10.062;2023-02-01T02:06:43;26.17;;;6.93;;
9972;SDS011;5027;53.560;10.062;2023-02-01T02:09:22;30.63;;;7.77;;
9972;SDS011;5027;53.560;10.062;2023-02-01T02:11:49;22.23;;;6.13;;
9972;SDS011;5027;53.560;10.062;2023-02-01T02:14:17;30.53;;;7.00;;
9972;SDS011;5027;53.560;10.062;2023-02-01T02:16:54;28.73;;;7.33;;
9972;SDS011;5027;53.560;10.062;2023-02-01T02:22:41;27.33;;;7.83;;
9972;SDS011;5027;53.560;10.062;2023-02-01T02:25:34;27.70;;;7.47;;
9972;SDS011;5027;53.560;10.062;2023-02-01T02:39:21;31.07;;;7.37;;
9972;SDS011;5027;53.560;10.062;2023-02-01T02:42:00;33.10;;;7.63;;
9972;SDS011;5027;53.560;10.062;2023-02-01T02:45:07;10.00;;;3.97;;
9972;SDS011;5027;53.560;10.062;2023-02-01T02:48:17;29.00;;;7.90;;
9972;SDS011;5027;53.560;10.062;2023-02-01T02:54:36;27.87;;;7.23;;
9972;SDS011;5027;53.560;10.062;2023-02-01T02:57:15;26.70;;;6.50;;
9972;SDS011;5027;53.560;10.062;2023-02-01T03:00:12;33.47;;;7.77;;
9972;SDS011;5027;53.560;10.062;2023-02-01T03:03:01;27.10;;;7.37;;
9972;SDS011;5027;53.560;10.062;2023-02-01T03:05:47;33.83;;;7.77;;
9972;SDS011;5027;53.560;10.062;2023-02-01T03:10:51;25.90;;;7.57;;
9972;SDS011;5027;53.560;10.062;2023-02-01T03:16:23;22.57;;;7.00;;
9972;SDS011;5027;53.560;10.062;2023-02-01T03:19:07;19.47;;;5.50;;
9972;SDS011;5027;53.560;10.062;2023-02-01T03:21:50;30.70;;;8.17;;
9972;SDS011;5027;53.560;10.062;2023-02-01T03:24:26;26.63;;;7.27;;
9972;SDS011;5027;53.560;10.062;2023-02-01T03:27:02;24.90;;;7.37;;
9972;SDS011;5027;53.560;10.062;2023-02-01T03:29:48;24.73;;;6.30;;
9972;SDS011;5027;53.560;10.062;2023-02-01T03:32:29;28.43;;;6.87;;
9972;SDS011;5027;53.560;10.062;2023-02-01T03:35:16;26.07;;;6.20;;
9972;SDS011;5027;53.560;10.062;2023-02-01T03:37:44;17.17;;;5.33;;
9972;SDS011;5027;53.560;10.062;2023-02-01T03:40:11;26.50;;;6.27;;
9972;SDS011;5027;53.560;10.062;2023-02-01T03:42:43;14.93;;;4.93;;
9972;SDS011;5027;53.560;10.062;2023-02-01T03:45:16;12.70;;;4.13;;
9972;SDS011;5027;53.560;10.062;2023-02-01T03:47:49;18.90;;;5.00;;
9972;SDS011;5027;53.560;10.062;2023-02-01T03:50:20;17.90;;;5.47;;
9972;SDS011;5027;53.560;10.062;2023-02-01T03:52:54;12.20;;;4.13;;
9972;SDS011;5027;53.560;10.062;2023-02-01T03:55:37;17.07;;;4.40;;
9972;SDS011;5027;53.560;10.062;2023-02-01T03:58:09;13.40;;;4.20;;
9972;SDS011;5027;53.560;10.062;2023-02-01T04:00:46;15.43;;;4.73;;
9972;SDS011;5027;53.560;10.062;2023-02-01T04:03:21;15.37;;;4.57;;
9972;SDS011;5027;53.560;10.062;2023-02-01T04:05:48;12.53;;;3.90;;
9972;SDS011;5027;53.560;10.062;2023-02-01T04:08:17;8.90;;;3.40;;
9972;SDS011;5027;53.560;10.062;2023-02-01T04:10:45;13.43;;;4.17;;
9972;SDS011;5027;53.560;10.062;2023-02-01T04:13:12;14.50;;;4.20;;
9972;SDS011;5027;53.560;10.062;2023-02-01T04:15:38;12.90;;;4.10;;
9972;SDS011;5027;53.560;10.062;2023-02-01T04:18:05;19.63;;;5.27;;
9972;SDS011;5027;53.560;10.062;2023-02-01T04:20:32;15.73;;;4.83;;
9972;SDS011;5027;53.560;10.062;2023-02-01T04:22:59;13.07;;;4.23;;
9972;SDS011;5027;53.560;10.062;2023-02-01T04:25:29;16.47;;;4.77;;
9972;SDS011;5027;53.560;10.062;2023-02-01T04:27:56;17.23;;;5.23;;
9972;SDS011;5027;53.560;10.062;2023-02-01T04:30:22;12.80;;;3.80;;
9972;SDS011;5027;53.560;10.062;2023-02-01T04:32:50;18.70;;;4.60;;
9972;SDS011;5027;53.560;10.062;2023-02-01T04:35:16;15.53;;;3.67;;
9972;SDS011;5027;53.560;10.062;2023-02-01T04:37:43;19.33;;;4.37;;
9972;SDS011;5027;53.560;10.062;2023-02-01T04:40:10;11.77;;;3.80;;
9972;SDS011;5027;53.560;10.062;2023-02-01T04:42:37;16.87;;;4.17;;
9972;SDS011;5027;53.560;10.062;2023-02-01T04:45:04;15.23;;;3.97;;
9972;SDS011;5027;53.560;10.062;2023-02-01T04:47:31;17.43;;;4.43;;
9972;SDS011;5027;53.560;10.062;2023-02-01T04:49:58;14.67;;;4.07;;
9972;SDS011;5027;53.560;10.062;2023-02-01T04:52:24;10.67;;;3.60;;
9972;SDS011;5027;53.560;10.062;2023-02-01T04:54:51;11.37;;;3.97;;
9972;SDS011;5027;53.560;10.062;2023-02-01T04:57:20;16.27;;;4.17;;
9972;SDS011;5027;53.560;10.062;2023-02-01T04:59:46;13.37;;;3.87;;
9972;SDS011;5027;53.560;10.062;2023-02-01T05:02:13;11.57;;;3.57;;
9972;SDS011;5027;53.560;10.062;2023-02-01T05:04:40;9.97;;;3.43;;
9972;SDS011;5027;53.560;10.062;2023-02-01T05:07:06;9.27;;;3.20;;
9972;SDS011;5027;53.560;10.062;2023-02-01T05:09:33;9.93;;;3.03;;
9972;SDS011;5027;53.560;10.062;2023-02-01T05:12:00;8.73;;;3.10;;
9972;SDS011;5027;53.560;10.062;2023-02-01T05:14:45;6.03;;;2.50;;
9972;SDS011;5027;53.560;10.062;2023-02-01T05:17:12;6.23;;;3.10;;
9972;SDS011;5027;53.560;10.062;2023-02-01T05:19:38;4.43;;;1.80;;
9972;SDS011;5027;53.560;10.062;2023-02-01T05:22:05;4.00;;;1.53;;
9972;SDS011;5027;53.560;10.062;2023-02-01T05:24:32;3.60;;;1.60;;
9972;SDS011;5027;53.560;10.062;2023-02-01T05:26:59;4.90;;;1.60;;
9972;SDS011;5027;53.560;10.062;2023-02-01T05:29:25;2.30;;;1.30;;
9972;SDS011;5027;53.560;10.062;2023-02-01T05:31:52;1.97;;;1.03;;
9972;SDS011;5027;53.560;10.062;2023-02-01T05:34:19;3.33;;;1.50;;
9972;SDS011;5027;53.560;10.062;2023-02-01T05:36:45;2.60;;;1.10;;
9972;SDS011;5027;53.560;10.062;2023-02-01T05:39:12;2.83;;;1.47;;
9972;SDS011;5027;53.560;10.062;2023-02-01T05:41:39;4.47;;;1.50;;
9972;SDS011;5027;53.560;10.062;2023-02-01T05:44:05;2.60;;;1.20;;
9972;SDS011;5027;53.560;10.062;2023-02-01T05:46:35;2.83;;;1.20;;
9972;SDS011;5027;53.560;10.062;2023-02-01T05:49:02;1.80;;;1.20;;
9972;SDS011;5027;53.560;10.062;2023-02-01T05:51:30;4.80;;;1.57;;
9972;SDS011;5027;53.560;10.062;2023-02-01T05:53:57;2.67;;;1.13;;
9972;SDS011;5027;53.560;10.062;2023-02-01T05:56:23;4.53;;;2.10;;
9972;SDS011;5027;53.560;10.062;2023-02-01T05:58:50;1.90;;;1.17;;
9972;SDS011;5027;53.560;10.062;2023-02-01T06:01:17;5.23;;;2.30;;
9972;SDS011;5027;53.560;10.062;2023-02-01T06:03:44;4.33;;;1.93;;
9972;SDS011;5027;53.560;10.062;2023-02-01T06:06:11;1.30;;;1.20;;
9972;SDS011;5027;53.560;10.062;2023-02-01T06:08:38;1.43;;;1.10;;
9972;SDS011;5027;53.560;10.062;2023-02-01T06:11:06;1.17;;;0.87;;
9972;SDS011;5027;53.560;10.062;2023-02-01T06:13:33;1.67;;;1.23;;
9972;SDS011;5027;53.560;10.062;2023-02-01T06:16:01;3.13;;;1.27;;
9972;SDS011;5027;53.560;10.062;2023-02-01T06:18:29;2.03;;;1.03;;
9972;SDS011;5027;53.560;10.062;2023-02-01T06:20:57;2.20;;;1.10;;
9972;SDS011;5027;53.560;10.062;2023-02-01T06:23:26;1.87;;;1.10;;
9972;SDS011;5027;53.560;10.062;2023-02-01T06:25:58;4.40;;;1.60;;
9972;SDS011;5027;53.560;10.062;2023-02-01T06:28:26;4.60;;;1.60;;
9972;SDS011;5027;53.560;10.062;2023-02-01T06:30:53;6.40;;;1.87;;
9972;SDS011;5027;53.560;10.062;2023-02-01T06:33:21;5.60;;;1.90;;
9972;SDS011;5027;53.560;10.062;2023-02-01T06:35:47;4.90;;;1.70;;
9972;SDS011;5027;53.560;10.062;2023-02-01T06:38:14;6.87;;;2.00;;
9972;SDS011;5027;53.560;10.062;2023-02-01T06:40:41;7.93;;;2.43;;
9972;SDS011;5027;53.560;10.062;2023-02-01T06:43:08;9.10;;;2.33;;
9972;SDS011;5027;53.560;10.062;2023-02-01T06:45:35;8.57;;;2.57;;
9972;SDS011;5027;53.560;10.062;2023-02-01T06:48:01;7.63;;;2.57;;
9972;SDS011;5027;53.560;10.062;2023-02-01T06:50:28;7.87;;;2.90;;
9972;SDS011;5027;53.560;10.062;2023-02-01T06:52:55;8.43;;;2.83;;
9972;SDS011;5027;53.560;10.062;2023-02-01T06:55:21;11.23;;;3.10;;
9972;SDS011;5027;53.560;10.062;2023-02-01T06:57:52;9.27;;;3.00;;
9972;SDS011;5027;53.560;10.062;2023-02-01T07:00:19;8.90;;;2.83;;
9972;SDS011;5027;53.560;10.062;2023-02-01T07:02:47;9.63;;;3.50;;
9972;SDS011;5027;53.560;10.062;2023-02-01T07:05:15;12.70;;;3.27;;
9972;SDS011;5027;53.560;10.062;2023-02-01T07:07:42;10.90;;;3.10;;
9972;SDS011;5027;53.560;10.062;2023-02-01T07:10:09;8.13;;;3.13;;
9972;SDS011;5027;53.560;10.062;2023-02-01T07:12:36;9.83;;;3.60;;
9972;SDS011;5027;53.560;10.062;2023-02-01T07:15:03;10.07;;;3.40;;
9972;SDS011;5027;53.560;10.062;2023-02-01T07:17:31;11.20;;;3.60;;
9972;SDS011;5027;53.560;10.062;2023-02-01T07:19:58;18.73;;;4.17;;
9972;SDS011;5027;53.560;10.062;2023-02-01T07:22:25;5.33;;;2.40;;
9972;SDS011;5027;53.560;10.062;2023-02-01T07:24:52;16.10;;;4.63;;
9972;SDS011;5027;53.560;10.062;2023-02-01T07:27:19;14.03;;;4.70;;
9972;SDS011;5027;53.560;10.062;2023-02-01T07:29:46;17.37;;;4.73;;
9972;SDS011;5027;53.560;10.062;2023-02-01T07:32:12;17.77;;;4.57;;
9972;SDS011;5027;53.560;10.062;2023-02-01T07:34:39;7.90;;;3.13;;
9972;SDS011;5027;53.560;10.062;2023-02-01T07:37:06;22.07;;;5.87;;
9972;SDS011;5027;53.560;10.062;2023-02-01T07:39:32;7.73;;;2.80;;
9972;SDS011;5027;53.560;10.062;2023-02-01T07:41:59;5.30;;;2.43;;
9972;SDS011;5027;53.560;10.062;2023-02-01T07:44:26;6.53;;;2.20;;
9972;SDS011;5027;53.560;10.062;2023-02-01T07:46:52;6.47;;;2.60;;
9972;SDS011;5027;53.560;10.062;2023-02-01T07:49:19;11.03;;;3.90;;
9972;SDS011;5027;53.560;10.062;2023-02-01T07:51:46;13.37;;;3.97;;
9972;SDS011;5027;53.560;10.062;2023-02-01T07:54:13;9.13;;;3.27;;
9972;SDS011;5027;53.560;10.062;2023-02-01T07:56:39;18.60;;;5.53;;
9972;SDS011;5027;53.560;10.062;2023-02-01T07:59:06;14.97;;;3.53;;
9972;SDS011;5027;53.560;10.062;2023-02-01T08:01:33;26.80;;;6.67;;
9972;SDS011;5027;53.560;10.062;2023-02-01T08:04:00;29.30;;;7.03;;
9972;SDS011;5027;53.560;10.062;2023-02-01T08:06:29;24.13;;;6.50;;
9972;SDS011;5027;53.560;10.062;2023-02-01T08:08:58;14.67;;;4.67;;
9972;SDS011;5027;53.560;10.062;2023-02-01T08:11:25;30.50;;;6.93;;
9972;SDS011;5027;53.560;10.062;2023-02-01T08:13:53;19.00;;;5.60;;
9972;SDS011;5027;53.560;10.062;2023-02-01T08:16:20;24.80;;;6.67;;
9972;SDS011;5027;53.560;10.062;2023-02-01T08:18:49;23.10;;;6.03;;
9972;SDS011;5027;53.560;10.062;2023-02-01T08:21:17;27.50;;;6.53;;
9972;SDS011;5027;53.560;10.062;2023-02-01T08:23:48;17.80;;;4.73;;
9972;SDS011;5027;53.560;10.062;2023-02-01T08:26:17;24.23;;;7.03;;
9972;SDS011;5027;53.560;10.062;2023-02-01T08:28:47;23.43;;;6.37;;
9972;SDS011;5027;53.560;10.062;2023-02-01T08:31:17;25.87;;;6.63;;
9972;SDS011;5027;53.560;10.062;2023-02-01T08:33:48;25.77;;;7.20;;
9972;SDS011;5027;53.560;10.062;2023-02-01T08:36:19;23.20;;;5.40;;
9972;SDS011;5027;53.560;10.062;2023-02-01T08:38:46;24.37;;;6.30;;
9972;SDS011;5027;53.560;10.062;2023-02-01T08:41:14;28.53;;;7.00;;
9972;SDS011;5027;53.560;10.062;2023-02-01T08:43:42;6.23;;;2.70;;
9972;SDS011;5027;53.560;10.062;2023-02-01T08:46:09;20.90;;;6.07;;
9972;SDS011;5027;53.560;10.062;2023-02-01T08:48:37;16.50;;;4.97;;
9972;SDS011;5027;53.560;10.062;2023-02-01T08:51:05;17.33;;;4.63;;
9972;SDS011;5027;53.560;10.062;2023-02-01T08:53:33;8.77;;;2.80;;
9972;SDS011;5027;53.560;10.062;2023-02-01T08:56:02;19.93;;;4.97;;
9972;SDS011;5027;53.560;10.062;2023-02-01T08:58:30;18.40;;;5.33;;
9972;SDS011;5027;53.560;10.062;2023-02-01T09:00:57;21.10;;;5.53;;
9972;SDS011;5027;53.560;10.062;2023-02-01T09:03:27;25.40;;;5.23;;
9972;SDS011;5027;53.560;10.062;2023-02-01T09:05:59;26.50;;;6.07;;
9972;SDS011;5027;53.560;10.062;2023-02-01T09:08:27;25.37;;;5.90;;
9972;SDS011;5027;53.560;10.062;2023-02-01T09:10:57;26.77;;;6.07;;
9972;SDS011;5027;53.560;10.062;2023-02-01T09:13:28;22.87;;;6.03;;
9972;SDS011;5027;53.560;10.062;2023-02-01T09:15:55;26.77;;;6.93;;
9972;SDS011;5027;53.560;10.062;2023-02-01T09:18:22;19.93;;;6.50;;
9972;SDS011;5027;53.560;10.062;2023-02-01T09:20:49;25.43;;;6.37;;
9972;SDS011;5027;53.560;10.062;2023-02-01T09:23:15;24.23;;;6.67;;
9972;SDS011;5027;53.560;10.062;2023-02-01T09:25:42;19.27;;;5.70;;
9972;SDS011;5027;53.560;10.062;2023-02-01T09:28:09;20.07;;;6.30;;
9972;SDS011;5027;53.560;10.062;2023-02-01T09:30:36;22.67;;;6.13;;
9972;SDS011;5027;53.560;10.062;2023-02-01T09:33:03;9.43;;;2.80;;
9972;SDS011;5027;53.560;10.062;2023-02-01T09:35:30;13.57;;;4.27;;
9972;SDS011;5027;53.560;10.062;2023-02-01T09:37:57;17.40;;;4.57;;
9972;SDS011;5027;53.560;10.062;2023-02-01T09:40:24;19.20;;;5.43;;
9972;SDS011;5027;53.560;10.062;2023-02-01T09:45:49;20.60;;;6.23;;
9972;SDS011;5027;53.560;10.062;2023-02-01T09:48:20;8.13;;;3.20;;
9972;SDS011;5027;53.560;10.062;2023-02-01T09:50:52;19.83;;;5.07;;
9972;SDS011;5027;53.560;10.062;2023-02-01T09:53:23;21.00;;;5.73;;
9972;SDS011;5027;53.560;10.062;2023-02-01T09:55:53;16.20;;;5.47;;
9972;SDS011;5027;53.560;10.062;2023-02-01T09:58:41;23.67;;;6.50;;
9972;SDS011;5027;53.560;10.062;2023-02-01T10:01:18;19.63;;;5.90;;
9972;SDS011;5027;53.560;10.062;2023-02-01T10:03:48;22.97;;;5.47;;
9972;SDS011;5027;53.560;10.062;2023-02-01T10:06:28;13.03;;;4.33;;
9972;SDS011;5027;53.560;10.062;2023-02-01T10:12:28;24.30;;;5.43;;
9972;SDS011;5027;53.560;10.062;2023-02-01T10:15:22;26.00;;;6.03;;
9972;SDS011;5027;53.560;10.062;2023-02-01T10:23:51;20.60;;;5.40;;
9972;SDS011;5027;53.560;10.062;2023-02-01T10:28:50;20.03;;;5.93;;
9972;SDS011;5027;53.560;10.062;2023-02-01T10:31:29;19.07;;;5.37;;
9972;SDS011;5027;53.560;10.062;2023-02-01T10:34:10;9.80;;;3.00;;
9972;SDS011;5027;53.560;10.062;2023-02-01T10:37:00;21.40;;;5.57;;
9972;SDS011;5027;53.560;10.062;2023-02-01T10:39:27;20.27;;;5.77;;
9972;SDS011;5027;53.560;10.062;2023-02-01T10:41:54;21.13;;;6.00;;
9972;SDS011;5027;53.560;10.062;2023-02-01T10:44:26;23.40;;;5.73;;
9972;SDS011;5027;53.560;10.062;2023-02-01T10:46:55;22.67;;;5.80;;
9972;SDS011;5027;53.560;10.062;2023-02-01T10:49:38;18.20;;;4.53;;
9972;SDS011;5027;53.560;10.062;2023-02-01T10:52:33;20.03;;;5.77;;
9972;SDS011;5027;53.560;10.062;2023-02-01T10:55:41;28.20;;;5.83;;
9972;SDS011;5027;53.560;10.062;2023-02-01T10:58:20;21.00;;;5.53;;
9972;SDS011;5027;53.560;10.062;2023-02-01T11:03:50;26.57;;;6.50;;
9972;SDS011;5027;53.560;10.062;2023-02-01T11:06:30;18.43;;;5.67;;
9972;SDS011;5027;53.560;10.062;2023-02-01T11:14:46;19.03;;;5.43;;
9972;SDS011;5027;53.560;10.062;2023-02-01T11:19:44;19.57;;;5.53;;
9972;SDS011;5027;53.560;10.062;2023-02-01T11:22:11;17.43;;;5.37;;
9972;SDS011;5027;53.560;10.062;2023-02-01T11:24:40;12.17;;;4.07;;
9972;SDS011;5027;53.560;10.062;2023-02-01T11:27:17;12.10;;;3.97;;
9972;SDS011;5027;53.560;10.062;2023-02-01T11:29:55;12.40;;;3.80;;
9972;SDS011;5027;53.560;10.062;2023-02-01T11:32:25;19.37;;;5.70;;
9972;SDS011;5027;53.560;10.062;2023-02-01T11:35:03;18.07;;;5.07;;
9972;SDS011;5027;53.560;10.062;2023-02-01T11:37:38;23.33;;;5.80;;
9972;SDS011;5027;53.560;10.062;2023-02-01T11:42:53;22.23;;;5.60;;
9972;SDS011;5027;53.560;10.062;2023-02-01T11:45:31;21.73;;;5.40;;
9972;SDS011;5027;53.560;10.062;2023-02-01T11:48:15;8.77;;;3.00;;
9972;SDS011;5027;53.560;10.062;2023-02-01T11:51:08;20.77;;;5.23;;
9972;SDS011;5027;53.560;10.062;2023-02-01T11:53:51;19.23;;;5.03;;
9972;SDS011;5027;53.560;10.062;2023-02-01T11:56:38;18.53;;;5.23;;
9972;SDS011;5027;53.560;10.062;2023-02-01T12:08:26;14.37;;;3.90;;
9972;SDS011;5027;53.560;10.062;2023-02-01T12:22:21;7.40;;;2.80;;
9972;SDS011;5027;53.560;10.062;2023-02-01T12:29:55;11.37;;;3.30;;
9972;SDS011;5027;53.560;10.062;2023-02-01T12:33:00;10.13;;;3.50;;
9972;SDS011;5027;53.560;10.062;2023-02-01T12:38:53;5.73;;;2.90;;
9972;SDS011;5027;53.560;10.062;2023-02-01T12:41:57;7.73;;;2.47;;
9972;SDS011;5027;53.560;10.062;2023-02-01T12:50:52;8.10;;;2.93;;
9972;SDS011;5027;53.560;10.062;2023-02-01T12:53:23;6.53;;;2.60;;
9972;SDS011;5027;53.560;10.062;2023-02-01T12:55:54;4.30;;;1.80;;
9972;SDS011;5027;53.560;10.062;2023-02-01T13:01:15;5.20;;;2.00;;
9972;SDS011;5027;53.560;10.062;2023-02-01T13:03:52;5.13;;;1.70;;
9972;SDS011;5027;53.560;10.062;2023-02-01T13:06:20;4.80;;;1.70;;
9972;SDS011;5027;53.560;10.062;2023-02-01T13:09:07;3.43;;;1.50;;
9972;SDS011;5027;53.560;10.062;2023-02-01T13:11:42;7.30;;;2.23;;
9972;SDS011;5027;53.560;10.062;2023-02-01T13:14:23;5.63;;;1.73;;
9972;SDS011;5027;53.560;10.062;2023-02-01T13:16:59;9.13;;;2.40;;
9972;SDS011;5027;53.560;10.062;2023-02-01T13:19:49;2.57;;;1.40;;
9972;SDS011;5027;53.560;10.062;2023-02-01T13:22:31;2.30;;;1.40;;
9972;SDS011;5027;53.560;10.062;2023-02-01T13:27:36;2.57;;;1.40;;
9972;SDS011;5027;53.560;10.062;2023-02-01T13:30:18;3.70;;;1.30;;
9972;SDS011;5027;53.560;10.062;2023-02-01T13:33:13;1.50;;;1.30;;
9972;SDS011;5027;53.560;10.062;2023-02-01T13:41:58;3.73;;;1.50;;
9972;SDS011;5027;53.560;10.062;2023-02-01T13:44:37;2.07;;;1.33;;
9972;SDS011;5027;53.560;10.062;2023-02-01T13:47:22;5.37;;;2.60;;
9972;SDS011;5027;53.560;10.062;2023-02-01T13:49:53;5.90;;;1.80;;
9972;SDS011;5027;53.560;10.062;2023-02-01T13:52:36;3.63;;;1.33;;
9972;SDS011;5027;53.560;10.062;2023-02-01T13:57:39;2.37;;;1.43;;
9972;SDS011;5027;53.560;10.062;2023-02-01T14:10:46;7.50;;;2.60;;
9972;SDS011;5027;53.560;10.062;2023-02-01T14:23:55;4.70;;;2.10;;
9972;SDS011;5027;53.560;10.062;2023-02-01T14:26:40;5.33;;;2.10;;
9972;SDS011;5027;53.560;10.062;2023-02-01T14:34:30;2.40;;;1.80;;
9972;SDS011;5027;53.560;10.062;2023-02-01T14:44:51;5.47;;;2.20;;
9972;SDS011;5027;53.560;10.062;2023-02-01T14:47:26;2.47;;;1.70;;
9972;SDS011;5027;53.560;10.062;2023-02-01T14:55:20;5.77;;;2.60;;
9972;SDS011;5027;53.560;10.062;2023-02-01T14:58:16;3.73;;;1.50;;
9972;SDS011;5027;53.560;10.062;2023-02-01T15:00:58;4.30;;;1.53;;
9972;SDS011;5027;53.560;10.062;2023-02-01T15:03:42;4.83;;;2.30;;
9972;SDS011;5027;53.560;10.062;2023-02-01T15:06:53;9.20;;;2.80;;
9972;SDS011;5027;53.560;10.062;2023-02-01T15:09:27;7.67;;;2.77;;
9972;SDS011;5027;53.560;10.062;2023-02-01T15:12:04;6.93;;;2.60;;
9972;SDS011;5027;53.560;10.062;2023-02-01T15:14:38;8.83;;;3.80;;
9972;SDS011;5027;53.560;10.062;2023-02-01T15:17:21;6.20;;;1.87;;
9972;SDS011;5027;53.560;10.062;2023-02-01T15:19:57;9.30;;;2.93;;
9972;SDS011;5027;53.560;10.062;2023-02-01T15:22:27;8.20;;;3.17;;
9972;SDS011;5027;53.560;10.062;2023-02-01T15:24:59;13.10;;;4.07;;
9972;SDS011;5027;53.560;10.062;2023-02-01T15:27:27;11.63;;;3.60;;
9972;SDS011;5027;53.560;10.062;2023-02-01T15:30:04;12.07;;;4.17;;
9972;SDS011;5027;53.560;10.062;2023-02-01T15:32:33;8.67;;;2.90;;
9972;SDS011;5027;53.560;10.062;2023-02-01T15:35:05;5.63;;;2.40;;
9972;SDS011;5027;53.560;10.062;2023-02-01T15:37:52;12.47;;;3.70;;
9972;SDS011;5027;53.560;10.062;2023-02-01T15:40:19;9.63;;;3.27;;
9972;SDS011;5027;53.560;10.062;2023-02-01T15:42:54;8.77;;;3.20;;
9972;SDS011;5027;53.560;10.062;2023-02-01T15:45:27;10.60;;;3.80;;
9972;SDS011;5027;53.560;10.062;2023-02-01T15:47:56;9.40;;;2.87;;
9972;SDS011;5027;53.560;10.062;2023-02-01T15:50:24;4.17;;;1.73;;
9972;SDS011;5027;53.560;10.062;2023-02-01T15:52:53;5.70;;;2.47;;
9972;SDS011;5027;53.560;10.062;2023-02-01T15:55:35;4.57;;;2.03;;
9972;SDS011;5027;53.560;10.062;2023-02-01T15:58:09;13.97;;;3.70;;
9972;SDS011;5027;53.560;10.062;2023-02-01T16:00:55;7.27;;;2.33;;
9972;SDS011;5027;53.560;10.062;2023-02-01T16:03:26;10.87;;;4.07;;
9972;SDS011;5027;53.560;10.062;2023-02-01T16:06:02;17.30;;;3.87;;
9972;SDS011;5027;53.560;10.062;2023-02-01T16:08:33;11.17;;;3.90;;
9972;SDS011;5027;53.560;10.062;2023-02-01T16:13:35;11.17;;;3.90;;
9972;SDS011;5027;53.560;10.062;2023-02-01T16:16:07;5.13;;;2.07;;
9972;SDS011;5027;53.560;10.062;2023-02-01T16:18:41;13.67;;;4.27;;
9972;SDS011;5027;53.560;10.062;2023-02-01T16:21:11;13.27;;;4.70;;
9972;SDS011;5027;53.560;10.062;2023-02-01T16:23:38;11.73;;;3.50;;
9972;SDS011;5027;53.560;10.062;2023-02-01T16:26:05;16.50;;;4.00;;
9972;SDS011;5027;53.560;10.062;2023-02-01T16:28:35;16.70;;;4.90;;
9972;SDS011;5027;53.560;10.062;2023-02-01T16:31:01;19.23;;;5.27;;
9972;SDS011;5027;53.560;10.062;2023-02-01T16:33:34;20.63;;;5.20;;
9972;SDS011;5027;53.560;10.062;2023-02-01T16:36:00;13.60;;;3.87;;
9972;SDS011;5027;53.560;10.062;2023-02-01T16:38:30;19.00;;;6.10;;
9972;SDS011;5027;53.560;10.062;2023-02-01T16:41:00;18.67;;;5.40;;
9972;SDS011;5027;53.560;10.062;2023-02-01T16:43:31;9.73;;;3.33;;
9972;SDS011;5027;53.560;10.062;2023-02-01T16:45:59;15.63;;;5.03;;
9972;SDS011;5027;53.560;10.062;2023-02-01T16:48:29;7.77;;;2.87;;
9972;SDS011;5027;53.560;10.062;2023-02-01T16:51:00;26.13;;;6.47;;
9972;SDS011;5027;53.560;10.062;2023-02-01T16:53:30;20.60;;;5.77;;
9972;SDS011;5027;53.560;10.062;2023-02-01T16:56:13;14.13;;;4.10;;
9972;SDS011;5027;53.560;10.062;2023-02-01T16:58:42;19.67;;;5.07;;
9972;SDS011;5027;53.560;10.062;2023-02-01T17:01:10;23.33;;;6.47;;
9972;SDS011;5027;53.560;10.062;2023-02-01T17:03:38;23.23;;;6.80;;
9972;SDS011;5027;53.560;10.062;2023-02-01T17:06:06;21.23;;;6.20;;
9972;SDS011;5027;53.560;10.062;2023-02-01T17:08:36;27.03;;;6.63;;
9972;SDS011;5027;53.560;10.062;2023-02-01T17:11:08;23.63;;;6.50;;
9972;SDS011;5027;53.560;10.062;2023-02-01T17:13:38;24.77;;;6.13;;
9972;SDS011;5027;53.560;10.062;2023-02-01T17:16:12;27.53;;;6.83;;
9972;SDS011;5027;53.560;10.062;2023-02-01T17:18:50;12.50;;;4.50;;
9972;SDS011;5027;53.560;10.062;2023-02-01T17:21:41;13.67;;;3.93;;
9972;SDS011;5027;53.560;10.062;2023-02-01T17:24:18;25.13;;;7.07;;
9972;SDS011;5027;53.560;10.062;2023-02-01T17:26:47;24.43;;;7.33;;
9972;SDS011;5027;53.560;10.062;2023-02-01T17:29:16;31.87;;;7.20;;
9972;SDS011;5027;53.560;10.062;2023-02-01T17:31:44;24.23;;;6.33;;
9972;SDS011;5027;53.560;10.062;2023-02-01T17:34:14;26.63;;;6.70;;
9972;SDS011;5027;53.560;10.062;2023-02-01T17:36:42;24.40;;;6.13;;
9972;SDS011;5027;53.560;10.062;2023-02-01T17:39:09;27.80;;;7.10;;
9972;SDS011;5027;53.560;10.062;2023-02-01T17:41:57;31.37;;;7.23;;
9972;SDS011;5027;53.560;10.062;2023-02-01T17:44:24;9.33;;;3.20;;
9972;SDS011;5027;53.560;10.062;2023-02-01T17:46:50;23.20;;;7.13;;